Redbird, Oklahoma
Current Conditions -  °F | °C
As of 5:53 AM on Saturday 25 Oct 2014 (Local Time) from KMKO Reporting Station
Clear Clear  
Wind Chill: 59°   Ceiling: Unl
Heat Index: 59°   Visibility: 9mi
Dew Point: 56°   Wind: 6mph
Humidity: 90%   Direction: 170°S
Pressure: 30.08"   Gusts: NA
Location:  35.89°N, 95.59°W
Report Text: KMKO 251053Z AUTO 17005KT 9SM CLR 15/13 A3008 RMK AO2 SLP182 T01500133
Loading
Personal Weather Stations






























Interactive Weather Map
Tropical Storm Tracking
New forecast layout! Learn more

10-Day Weather Forecast

Advertisements
Track Severe Weather on mobile